createdAt,value
2022-12-17T00:01:26.161Z,-3.60
2022-12-17T00:06:47.518Z,-3.60
2022-12-17T00:12:09.785Z,-3.60
2022-12-17T00:17:31.460Z,-3.70
2022-12-17T00:22:52.917Z,-3.70
2022-12-17T00:28:14.966Z,-3.70
2022-12-17T00:33:36.695Z,-3.70
2022-12-17T00:38:59.392Z,-3.70
2022-12-17T00:44:20.694Z,-3.80
2022-12-17T00:49:44.502Z,-3.70
2022-12-17T00:55:05.827Z,-3.80
2022-12-17T01:00:27.967Z,-3.70
2022-12-17T01:05:49.076Z,-3.80
2022-12-17T01:11:10.167Z,-3.80
2022-12-17T01:16:33.561Z,-3.80
2022-12-17T01:21:55.072Z,-3.80
2022-12-17T01:27:17.667Z,-3.80
2022-12-17T01:32:39.095Z,-3.80
2022-12-17T01:38:00.268Z,-3.90
2022-12-17T01:43:21.359Z,-3.90
2022-12-17T01:48:48.884Z,-3.90
2022-12-17T01:54:11.558Z,-3.90
2022-12-17T01:59:33.856Z,-4.00
2022-12-17T02:04:55.368Z,-4.00
2022-12-17T02:10:56.573Z,-4.00
2022-12-17T02:16:26.625Z,-4.10
2022-12-17T02:21:50.024Z,-4.00
2022-12-17T02:27:15.189Z,-4.00
2022-12-17T02:32:38.355Z,-4.10
2022-12-17T02:38:06.214Z,-4.10
2022-12-17T02:43:28.936Z,-4.10
2022-12-17T02:48:51.543Z,-4.10
2022-12-17T02:54:13.271Z,-4.10
2022-12-17T02:59:34.500Z,-4.10
2022-12-17T03:05:21.450Z,-4.10
2022-12-17T03:11:01.529Z,-4.20
2022-12-17T03:16:35.791Z,-4.40
2022-12-17T03:21:59.134Z,-4.40
2022-12-17T03:27:20.587Z,-4.50
2022-12-17T03:32:41.812Z,-4.60
2022-12-17T03:38:07.607Z,-4.60
2022-12-17T03:43:30.589Z,-4.60
2022-12-17T03:48:51.939Z,-4.50
2022-12-17T03:54:13.199Z,-4.70
2022-12-17T03:59:34.522Z,-4.70
2022-12-17T04:04:56.026Z,-4.70
2022-12-17T04:10:17.337Z,-4.70
2022-12-17T04:20:59.950Z,-4.80
2022-12-17T04:26:21.341Z,-4.90
2022-12-17T04:31:42.819Z,-5.00
2022-12-17T04:37:03.677Z,-5.00
2022-12-17T04:42:24.748Z,-5.00
2022-12-17T04:47:45.597Z,-5.00
2022-12-17T04:53:06.909Z,-5.00
2022-12-17T04:58:28.412Z,-5.00
2022-12-17T05:03:49.266Z,-4.90
2022-12-17T05:09:10.248Z,-4.90
2022-12-17T05:14:31.115Z,-4.90
2022-12-17T05:19:52.473Z,-4.90
2022-12-17T05:25:13.309Z,-5.00
2022-12-17T05:30:34.428Z,-5.00
2022-12-17T05:35:55.858Z,-5.00
2022-12-17T05:41:18.494Z,-5.00
2022-12-17T05:46:39.756Z,-5.10
2022-12-17T05:52:00.843Z,-5.10
2022-12-17T05:57:21.901Z,-5.10
2022-12-17T06:02:43.528Z,-5.20
2022-12-17T06:08:05.282Z,-5.10
2022-12-17T06:13:26.149Z,-5.20
2022-12-17T06:18:47.305Z,-5.20
2022-12-17T06:24:08.268Z,-5.20
2022-12-17T06:29:29.311Z,-5.20
2022-12-17T06:34:50.200Z,-5.30
2022-12-17T06:40:11.526Z,-5.40
2022-12-17T06:45:33.069Z,-5.40
2022-12-17T06:50:57.055Z,-5.40
2022-12-17T06:56:18.919Z,-5.40
2022-12-17T07:01:40.577Z,-5.40
2022-12-17T07:07:01.607Z,-5.20
2022-12-17T07:12:22.908Z,-5.20
2022-12-17T07:17:43.933Z,-5.30
2022-12-17T07:23:04.908Z,-5.20
2022-12-17T07:28:26.058Z,-5.20
2022-12-17T07:33:47.219Z,-5.00
2022-12-17T07:39:08.258Z,-5.10
2022-12-17T07:44:29.405Z,-5.00
2022-12-17T07:49:50.964Z,-4.90
2022-12-17T07:55:16.725Z,-4.90
2022-12-17T08:00:44.682Z,-4.90
2022-12-17T08:06:08.812Z,-4.80
2022-12-17T08:11:29.920Z,-4.70
2022-12-17T08:16:50.848Z,-4.70
2022-12-17T08:22:12.164Z,-4.70
2022-12-17T08:27:33.157Z,-4.50
2022-12-17T08:32:54.482Z,-4.40
2022-12-17T08:38:23.515Z,-4.30
2022-12-17T08:43:44.426Z,-4.50
2022-12-17T08:49:05.290Z,-4.40
2022-12-17T08:54:26.713Z,-4.30
2022-12-17T08:59:47.758Z,-4.40
2022-12-17T09:05:08.604Z,-4.20
2022-12-17T09:10:41.637Z,-4.20
2022-12-17T09:16:02.776Z,-3.90
2022-12-17T09:21:24.045Z,-4.20
2022-12-17T09:26:45.020Z,-4.10
2022-12-17T09:32:06.014Z,-4.00
2022-12-17T09:37:27.038Z,-4.00
2022-12-17T09:43:17.336Z,-4.10
2022-12-17T09:48:48.188Z,-4.10
2022-12-17T09:54:11.625Z,-4.00
2022-12-17T09:59:39.869Z,-3.60
2022-12-17T10:05:04.288Z,-3.50
2022-12-17T10:10:46.122Z,-3.60
2022-12-17T10:16:07.353Z,-3.80
2022-12-17T10:21:30.847Z,-3.80
2022-12-17T10:26:53.617Z,-3.70
2022-12-17T10:32:19.232Z,-3.70
2022-12-17T10:38:00.562Z,-3.70
2022-12-17T10:43:21.580Z,-3.60
2022-12-17T10:48:48.308Z,-3.90
2022-12-17T10:54:19.062Z,-4.00
2022-12-17T11:00:09.702Z,-3.80
2022-12-17T11:05:46.525Z,-4.00
2022-12-17T11:11:07.744Z,-3.80
2022-12-17T11:17:07.497Z,-4.00
2022-12-17T11:23:00.553Z,-4.00
2022-12-17T11:28:58.638Z,-3.80
2022-12-17T11:34:44.167Z,-3.60
2022-12-17T11:40:32.909Z,-3.80
2022-12-17T11:46:25.912Z,-3.60
2022-12-17T11:51:55.270Z,-3.70
2022-12-17T11:57:25.529Z,-3.70
2022-12-17T12:03:03.616Z,-3.90
2022-12-17T12:08:45.854Z,-4.10
2022-12-17T12:14:20.118Z,-4.00
2022-12-17T12:20:04.530Z,-4.30
2022-12-17T12:25:52.926Z,-4.20
2022-12-17T12:31:20.081Z,-4.20
2022-12-17T12:36:44.202Z,-4.20
2022-12-17T12:42:20.344Z,-4.20
2022-12-17T12:47:49.494Z,-4.10
2022-12-17T12:53:10.425Z,-4.40
2022-12-17T12:59:00.448Z,-4.40
2022-12-17T13:04:49.492Z,-4.40
2022-12-17T13:09:54.945Z,-4.40
2022-12-17T13:15:30.174Z,-4.40
2022-12-17T13:20:35.827Z,-4.50
2022-12-17T13:25:38.850Z,-2.70
2022-12-17T13:30:41.753Z,-4.50
2022-12-17T13:35:47.121Z,-4.50
2022-12-17T13:41:05.191Z,-3.60
2022-12-17T13:46:23.517Z,-4.60
2022-12-17T13:51:29.205Z,-4.70
2022-12-17T13:56:35.009Z,-4.70
2022-12-17T14:01:46.697Z,-4.70
2022-12-17T14:06:50.546Z,-4.80
2022-12-17T14:12:11.672Z,-4.90
2022-12-17T14:17:19.358Z,-5.00
2022-12-17T14:22:33.129Z,-5.10
2022-12-17T14:27:36.876Z,-5.00
2022-12-17T14:32:42.767Z,-5.10
2022-12-17T14:37:47.119Z,-5.10
2022-12-17T14:42:50.397Z,-5.10
2022-12-17T14:47:59.910Z,-5.10
2022-12-17T14:53:23.356Z,-5.00
2022-12-17T14:58:27.732Z,-5.10
2022-12-17T15:03:34.233Z,-5.10
2022-12-17T15:08:41.333Z,-5.00
2022-12-17T15:13:44.390Z,-5.10
2022-12-17T15:18:46.905Z,-5.10
2022-12-17T15:23:49.432Z,-5.00
2022-12-17T15:28:51.875Z,-4.90
2022-12-17T15:33:54.315Z,-4.90
2022-12-17T15:38:56.800Z,-4.80
2022-12-17T15:43:59.600Z,-4.80
2022-12-17T15:49:03.783Z,-4.80
2022-12-17T15:54:06.155Z,-4.80
2022-12-17T15:59:08.764Z,-4.70
2022-12-17T16:04:17.853Z,-4.70
2022-12-17T16:09:26.900Z,-4.60
2022-12-17T16:14:29.414Z,-4.60
2022-12-17T16:19:31.809Z,-4.50
2022-12-17T16:24:34.340Z,-4.50
2022-12-17T16:29:36.852Z,-4.40
2022-12-17T16:34:42.307Z,-4.40
2022-12-17T16:39:44.897Z,-4.30
2022-12-17T16:44:47.502Z,-4.30
2022-12-17T16:49:52.737Z,-4.20
2022-12-17T16:54:55.220Z,-4.10
2022-12-17T16:59:57.894Z,-4.10
2022-12-17T17:05:00.347Z,-4.00
2022-12-17T17:10:03.169Z,-3.90
2022-12-17T17:15:06.199Z,-3.80
2022-12-17T17:20:09.073Z,-3.80
2022-12-17T17:25:11.527Z,-3.70
2022-12-17T17:30:14.327Z,-3.70
2022-12-17T17:35:16.975Z,-3.70
2022-12-17T17:40:19.613Z,-3.60
2022-12-17T17:45:22.050Z,-3.60
2022-12-17T17:50:24.452Z,-3.50
2022-12-17T17:55:26.913Z,-3.50
2022-12-17T18:00:29.633Z,-3.50
2022-12-17T18:05:41.298Z,-3.40
2022-12-17T18:10:55.328Z,-3.50
2022-12-17T18:16:01.958Z,-3.40
2022-12-17T18:21:08.675Z,-3.50
2022-12-17T18:26:17.388Z,-3.40
2022-12-17T18:31:25.590Z,-3.40
2022-12-17T18:36:33.091Z,-3.40
2022-12-17T18:41:54.596Z,-3.40
2022-12-17T18:46:57.125Z,-3.40
2022-12-17T18:52:00.513Z,-3.30
2022-12-17T18:57:03.131Z,-3.30
2022-12-17T19:02:06.478Z,-3.30
2022-12-17T19:07:09.384Z,-3.30
2022-12-17T19:12:11.962Z,-3.30
2022-12-17T19:17:14.406Z,-3.30
2022-12-17T19:22:19.781Z,-3.30
2022-12-17T19:27:22.202Z,-3.30
2022-12-17T19:32:24.973Z,-3.30
2022-12-17T19:37:27.521Z,-3.20
2022-12-17T19:42:36.838Z,-3.20
2022-12-17T19:47:39.988Z,-3.20
2022-12-17T19:52:45.487Z,-3.10
2022-12-17T19:57:47.908Z,-3.20
2022-12-17T20:02:50.603Z,-3.20
2022-12-17T20:07:53.372Z,-3.10
2022-12-17T20:12:57.720Z,-3.10
2022-12-17T20:18:00.207Z,-3.10
2022-12-17T20:23:02.740Z,-3.10
2022-12-17T20:28:05.305Z,-3.10
2022-12-17T20:33:07.837Z,-3.10
2022-12-17T20:38:10.264Z,-3.10
2022-12-17T20:43:16.258Z,-3.20
2022-12-17T20:48:18.839Z,-3.20
2022-12-17T20:53:21.320Z,-3.10
2022-12-17T20:58:23.794Z,-3.10
2022-12-17T21:03:26.378Z,-3.00
2022-12-17T21:08:29.232Z,-2.90
2022-12-17T21:13:31.854Z,-2.90
2022-12-17T21:18:34.913Z,-3.00
2022-12-17T21:23:38.911Z,-3.10
2022-12-17T21:28:43.315Z,-3.10
2022-12-17T21:33:47.786Z,-3.10
2022-12-17T21:38:52.425Z,-2.90
2022-12-17T21:44:00.147Z,-3.10
2022-12-17T21:49:04.180Z,-3.10
2022-12-17T21:54:08.780Z,-3.20
2022-12-17T21:59:12.038Z,-3.20
2022-12-17T22:04:14.697Z,-3.30
2022-12-17T22:09:29.560Z,-3.20
2022-12-17T22:14:41.196Z,-3.30
2022-12-17T22:19:43.782Z,-3.20
2022-12-17T22:24:46.186Z,-3.20
2022-12-17T22:30:09.072Z,-3.30
2022-12-17T22:36:48.699Z,-3.40
2022-12-17T22:44:17.233Z,-3.60
2022-12-17T22:46:05.142Z,-3.60
2022-12-17T22:51:16.079Z,-3.70
2022-12-17T22:56:50.836Z,-3.80
2022-12-17T23:01:52.919Z,-3.80
2022-12-17T23:06:56.411Z,-3.70
2022-12-17T23:12:19.107Z,-3.70
2022-12-17T23:17:21.516Z,-3.70
2022-12-17T23:22:23.948Z,-3.60
2022-12-17T23:27:26.518Z,-3.60
2022-12-17T23:32:29.064Z,-3.60
2022-12-17T23:37:36.535Z,-3.60
2022-12-17T23:42:42.206Z,-3.70
2022-12-17T23:47:44.608Z,-3.70
2022-12-17T23:52:47.098Z,-3.60
2022-12-17T23:57:49.599Z,-3.60
